Fahri Eksioglu — TCUH — position and weather

sailwx.info

Track history (hours):
 
Tides and Currents Weather Stations Pressure Air Temp Water Temp Dewpoint Dewpoint Depression Visibility Wind Speed Wind Dir Waves Ship Positions

Fahri Eksioglu

Last reported at 2016-Aug-24 00:24 UTC. Time now 2016-Aug-24 17:57 UTC.
Position N 41°57' E 006°00'.

Length 87 m; draft 5.7 m.

Type: Cargo ship. MMSI: 271000450.

Date/timePositionNaut miles runAvg speedWind from/ knotsBaromVisibWave heightAir tempDewpointWater temp
2016-Aug-24 00:24N 41°57' E 006°00'8 9.5
2016-Aug-23 23:33N 42°04' E 005°55'10 9.6
2016-Aug-23 22:33N 42°12' E 005°49'9 9.4
2016-Aug-23 21:33N 42°20' E 005°42'9 9.4
2016-Aug-23 20:33N 42°28' E 005°36'10 9.4
2016-Aug-23 19:31N 42°36' E 005°29'9 9.4
2016-Aug-23 18:33N 42°44' E 005°22'9 9.3
2016-Aug-23 17:33N 42°52' E 005°16'12 9.8
2016-Aug-23 16:19N 43°03' E 005°08'7 9.6
2016-Aug-23 15:33N 43°09' E 005°03'10 9.6
2016-Aug-23 14:33N 43°18' E 004°59'8 7.7
2016-Aug-23 13:33N 43°24' E 004°52'1 0.7
2016-Aug-23 12:33N 43°24' E 004°51'0 0.0
2016-Aug-23 11:32N 43°24' E 004°51'0 0.0
2016-Aug-23 10:28N 43°24' E 004°51'0 0.0
2016-Aug-23 09:31N 43°24' E 004°51'0 0.0
2016-Aug-23 08:30N 43°24' E 004°51'0 0.0
2016-Aug-23 07:33N 43°24' E 004°51'0 0.0
2016-Aug-23 06:33N 43°24' E 004°51'0 0.0
2016-Aug-23 05:32N 43°24' E 004°51'0 0.0
2016-Aug-23 04:32N 43°24' E 004°51'0 0.0
2016-Aug-23 03:31N 43°24' E 004°51'0 0.0
2016-Aug-23 02:31N 43°24' E 004°51'0 0.0
2016-Aug-23 01:29N 43°24' E 004°51'0 0.0
2016-Aug-23 00:33N 43°24' E 004°51'0 0.0
2016-Aug-22 23:33N 43°24' E 004°51'0 0.0
2016-Aug-22 22:32N 43°24' E 004°51'0 0.0
2016-Aug-22 21:33N 43°24' E 004°51'0 0.0
2016-Aug-22 20:33N 43°24' E 004°51'0 0.0
2016-Aug-22 19:30N 43°24' E 004°51'0 0.0
2016-Aug-22 18:33N 43°24' E 004°51'0 0.0
2016-Aug-22 17:32N 43°24' E 004°51'0 0.1
2016-Aug-22 16:32N 43°24' E 004°51'3 3.2
2016-Aug-22 15:33N 43°24' E 004°55'0 0.0
2016-Aug-22 14:23N 43°24' E 004°55'0 0.0
2016-Aug-22 13:26N 43°24' E 004°55'0 0.0
2016-Aug-22 12:30N 43°24' E 004°55'0 0.0
2016-Aug-22 11:32N 43°24' E 004°55'0 0.0
2016-Aug-22 10:32N 43°24' E 004°55'0 0.0
2016-Aug-22 09:32N 43°24' E 004°55'0 0.0
2016-Aug-22 08:32N 43°24' E 004°55'0 0.0
2016-Aug-22 07:28N 43°24' E 004°55'0 0.0
2016-Aug-22 06:29N 43°24' E 004°55'0 0.0
2016-Aug-22 05:33N 43°24' E 004°55'0 0.0
2016-Aug-22 04:31N 43°24' E 004°55'0 0.0
2016-Aug-22 03:31N 43°24' E 004°55'0 0.0
2016-Aug-22 02:32N 43°24' E 004°55'0 0.0
2016-Aug-22 01:32N 43°24' E 004°55'0 0.0
2016-Aug-22 00:32N 43°24' E 004°55'0 0.0
2016-Aug-21 23:32N 43°24' E 004°55'0 0.0
2016-Aug-21 22:30N 43°24' E 004°55'0 0.0
2016-Aug-21 21:26N 43°24' E 004°55'0 0.0
2016-Aug-21 20:32N 43°24' E 004°55'0 0.0
2016-Aug-21 19:32N 43°24' E 004°55'0 0.1
2016-Aug-21 18:32N 43°24' E 004°55'0 0.0
2016-Aug-21 17:31N 43°24' E 004°55'0 0.0
2016-Aug-21 16:32N 43°24' E 004°55'0 0.0
2016-Aug-21 15:33N 43°24' E 004°55'0 0.0
2016-Aug-21 14:33N 43°24' E 004°55'0 0.0
2016-Aug-21 13:30N 43°24' E 004°55'0 0.0
2016-Aug-21 12:28N 43°24' E 004°55'0 0.0
2016-Aug-21 11:32N 43°24' E 004°55'0 0.1
2016-Aug-21 10:32N 43°24' E 004°55'0 0.0
2016-Aug-21 09:32N 43°24' E 004°55'0 0.0
2016-Aug-21 08:32N 43°24' E 004°55'0 0.0
2016-Aug-21 07:31N 43°24' E 004°55'0 0.0
2016-Aug-21 06:33N 43°24' E 004°55'0 0.0
2016-Aug-21 05:33N 43°24' E 004°55'0 0.0
2016-Aug-21 04:31N 43°24' E 004°55'0 0.0
2016-Aug-21 03:31N 43°24' E 004°55'0 0.0
2016-Aug-21 02:31N 43°24' E 004°55'0 0.0
2016-Aug-21 01:30N 43°24' E 004°55'0 0.0
2016-Aug-21 00:33N 43°24' E 004°55'0 0.0
2016-Aug-20 23:31N 43°24' E 004°55'0 0.0
2016-Aug-20 22:31N 43°24' E 004°55'0 0.0
2016-Aug-20 21:32N 43°24' E 004°55'0 0.0
2016-Aug-20 20:32N 43°24' E 004°55'0 0.0
2016-Aug-20 19:29N 43°24' E 004°55'0 0.0
2016-Aug-20 18:27N 43°24' E 004°55'0 0.0
2016-Aug-20 17:27N 43°24' E 004°55'0 0.0
2016-Aug-20 16:30N 43°24' E 004°55'0 0.0
2016-Aug-20 15:33N 43°24' E 004°55'0 0.1
2016-Aug-20 14:31N 43°24' E 004°55'0 0.0
2016-Aug-20 13:30N 43°24' E 004°55'0 0.0
2016-Aug-20 12:28N 43°24' E 004°55'0 0.0
2016-Aug-20 11:33N 43°24' E 004°55'0 0.0
2016-Aug-20 10:31N 43°24' E 004°55'0 0.0
2016-Aug-20 09:32N 43°24' E 004°55'0 0.0
2016-Aug-20 08:31N 43°24' E 004°55'0 0.0
2016-Aug-20 07:33N 43°24' E 004°55'0 0.0
2016-Aug-20 06:32N 43°24' E 004°55'0 0.0
2016-Aug-20 05:32N 43°24' E 004°55'0 0.0
2016-Aug-20 04:33N 43°24' E 004°55'0 0.0
2016-Aug-20 03:33N 43°24' E 004°55'0 0.0
2016-Aug-20 02:33N 43°24' E 004°55'0 0.0
2016-Aug-20 01:33N 43°24' E 004°55'0 0.0
2016-Aug-20 00:29N 43°24' E 004°55'0 0.0
2016-Aug-19 23:32N 43°24' E 004°55'0 0.0
2016-Aug-19 22:32N 43°24' E 004°55'0 0.0
2016-Aug-19 21:30N 43°24' E 004°55'0 0.1
2016-Aug-19 20:32N 43°24' E 004°55'0 0.0
2016-Aug-19 19:30N 43°24' E 004°55'0 0.0
2016-Aug-19 18:33N 43°24' E 004°55'0 0.0
2016-Aug-19 17:31N 43°24' E 004°55'0 0.0
2016-Aug-19 16:31N 43°24' E 004°55'0 0.0
2016-Aug-19 15:32N 43°24' E 004°55'0 0.0
2016-Aug-19 14:28N 43°24' E 004°55'0 0.0
2016-Aug-19 13:28N 43°24' E 004°55'0 0.0
2016-Aug-19 12:33N 43°24' E 004°55'0 0.0
2016-Aug-19 11:31N 43°24' E 004°55'0 0.0
2016-Aug-19 10:32N 43°24' E 004°55'0 0.0
2016-Aug-19 09:18N 43°24' E 004°55'0 0.1
2016-Aug-19 08:31N 43°24' E 004°55'0 0.0
2016-Aug-19 07:32N 43°24' E 004°55'0 0.0
2016-Aug-19 06:30N 43°24' E 004°55'0 0.0
2016-Aug-19 05:33N 43°24' E 004°55'0 0.0
2016-Aug-19 04:32N 43°24' E 004°55'0 0.0
2016-Aug-19 03:31N 43°24' E 004°55'0 0.0
2016-Aug-19 02:33N 43°24' E 004°55'0 0.0
2016-Aug-19 01:31N 43°24' E 004°55'0 0.0
2016-Aug-19 00:32N 43°24' E 004°55'0 0.0
2016-Aug-18 23:32N 43°24' E 004°55'0 0.0
2016-Aug-18 22:23N 43°24' E 004°55'0 0.0
2016-Aug-18 21:32N 43°24' E 004°55'0 0.0
2016-Aug-18 20:29N 43°24' E 004°55'0 0.0
2016-Aug-18 19:29N 43°24' E 004°55'0 0.0
2016-Aug-18 18:33N 43°24' E 004°55'0 0.0
2016-Aug-18 17:24N 43°24' E 004°55'0 0.0
2016-Aug-18 16:32N 43°24' E 004°55'0 0.0
2016-Aug-18 15:32N 43°24' E 004°55'0 0.0
2016-Aug-18 14:28N 43°24' E 004°55'0 0.0
2016-Aug-18 13:26N 43°24' E 004°55'0 0.0
2016-Aug-18 12:30N 43°24' E 004°55'0 0.0
2016-Aug-18 11:33N 43°24' E 004°55'0 0.0
2016-Aug-18 10:33N 43°24' E 004°55'0 0.0
2016-Aug-18 09:32N 43°24' E 004°55'0 0.0
2016-Aug-18 08:29N 43°24' E 004°55'0 0.0
2016-Aug-18 07:31N 43°24' E 004°55'4 4.2
2016-Aug-18 06:33N 43°21' E 004°58'10 9.5
2016-Aug-18 05:33N 43°12' E 005°03'387 7.9
2016-Aug-16 04:21N 36°55' E 006°56'0 0.0
2016-Aug-16 01:27N 36°55' E 006°56'5 5.6
2016-Aug-16 00:33N 36°59' E 006°60'  
Track history (hours):
 
Tides and Currents Weather Stations Pressure Air Temp Water Temp Dewpoint Dewpoint Depression Visibility Wind Speed Wind Dir Waves Ship Positions

Fahri Eksioglu

Last reported at 2016-Aug-24 00:24 UTC. Time now 2016-Aug-24 17:57 UTC.
Position N 41°57' E 006°00'.

Length 87 m; draft 5.7 m.

Type: Cargo ship. MMSI: 271000450.

Date/timePositionNaut miles runAvg speedWind from/ knotsBaromVisibWave heightAir tempDewpointWater temp
2016-Aug-24 00:24N 41°57' E 006°00'8 9.5
2016-Aug-23 23:33N 42°04' E 005°55'10 9.6
2016-Aug-23 22:33N 42°12' E 005°49'9 9.4
2016-Aug-23 21:33N 42°20' E 005°42'9 9.4
2016-Aug-23 20:33N 42°28' E 005°36'10 9.4
2016-Aug-23 19:31N 42°36' E 005°29'9 9.4
2016-Aug-23 18:33N 42°44' E 005°22'9 9.3
2016-Aug-23 17:33N 42°52' E 005°16'12 9.8
2016-Aug-23 16:19N 43°03' E 005°08'7 9.6
2016-Aug-23 15:33N 43°09' E 005°03'10 9.6
2016-Aug-23 14:33N 43°18' E 004°59'8 7.7
2016-Aug-23 13:33N 43°24' E 004°52'1 0.7
2016-Aug-23 12:33N 43°24' E 004°51'0 0.0
2016-Aug-23 11:32N 43°24' E 004°51'0 0.0
2016-Aug-23 10:28N 43°24' E 004°51'0 0.0
2016-Aug-23 09:31N 43°24' E 004°51'0 0.0
2016-Aug-23 08:30N 43°24' E 004°51'0 0.0
2016-Aug-23 07:33N 43°24' E 004°51'0 0.0
2016-Aug-23 06:33N 43°24' E 004°51'0 0.0
2016-Aug-23 05:32N 43°24' E 004°51'0 0.0
2016-Aug-23 04:32N 43°24' E 004°51'0 0.0
2016-Aug-23 03:31N 43°24' E 004°51'0 0.0
2016-Aug-23 02:31N 43°24' E 004°51'0 0.0
2016-Aug-23 01:29N 43°24' E 004°51'0 0.0
2016-Aug-23 00:33N 43°24' E 004°51'0 0.0
2016-Aug-22 23:33N 43°24' E 004°51'0 0.0
2016-Aug-22 22:32N 43°24' E 004°51'0 0.0
2016-Aug-22 21:33N 43°24' E 004°51'0 0.0
2016-Aug-22 20:33N 43°24' E 004°51'0 0.0
2016-Aug-22 19:30N 43°24' E 004°51'0 0.0
2016-Aug-22 18:33N 43°24' E 004°51'0 0.0
2016-Aug-22 17:32N 43°24' E 004°51'0 0.1
2016-Aug-22 16:32N 43°24' E 004°51'3 3.2
2016-Aug-22 15:33N 43°24' E 004°55'0 0.0
2016-Aug-22 14:23N 43°24' E 004°55'0 0.0
2016-Aug-22 13:26N 43°24' E 004°55'0 0.0
2016-Aug-22 12:30N 43°24' E 004°55'0 0.0
2016-Aug-22 11:32N 43°24' E 004°55'0 0.0
2016-Aug-22 10:32N 43°24' E 004°55'0 0.0
2016-Aug-22 09:32N 43°24' E 004°55'0 0.0
2016-Aug-22 08:32N 43°24' E 004°55'0 0.0
2016-Aug-22 07:28N 43°24' E 004°55'0 0.0
2016-Aug-22 06:29N 43°24' E 004°55'0 0.0
2016-Aug-22 05:33N 43°24' E 004°55'0 0.0
2016-Aug-22 04:31N 43°24' E 004°55'0 0.0
2016-Aug-22 03:31N 43°24' E 004°55'0 0.0
2016-Aug-22 02:32N 43°24' E 004°55'0 0.0
2016-Aug-22 01:32N 43°24' E 004°55'0 0.0
2016-Aug-22 00:32N 43°24' E 004°55'0 0.0
2016-Aug-21 23:32N 43°24' E 004°55'0 0.0
2016-Aug-21 22:30N 43°24' E 004°55'0 0.0
2016-Aug-21 21:26N 43°24' E 004°55'0 0.0
2016-Aug-21 20:32N 43°24' E 004°55'0 0.0
2016-Aug-21 19:32N 43°24' E 004°55'0 0.1
2016-Aug-21 18:32N 43°24' E 004°55'0 0.0
2016-Aug-21 17:31N 43°24' E 004°55'0 0.0
2016-Aug-21 16:32N 43°24' E 004°55'0 0.0
2016-Aug-21 15:33N 43°24' E 004°55'0 0.0
2016-Aug-21 14:33N 43°24' E 004°55'0 0.0
2016-Aug-21 13:30N 43°24' E 004°55'0 0.0
2016-Aug-21 12:28N 43°24' E 004°55'0 0.0
2016-Aug-21 11:32N 43°24' E 004°55'0 0.1
2016-Aug-21 10:32N 43°24' E 004°55'0 0.0
2016-Aug-21 09:32N 43°24' E 004°55'0 0.0
2016-Aug-21 08:32N 43°24' E 004°55'0 0.0
2016-Aug-21 07:31N 43°24' E 004°55'0 0.0
2016-Aug-21 06:33N 43°24' E 004°55'0 0.0
2016-Aug-21 05:33N 43°24' E 004°55'0 0.0
2016-Aug-21 04:31N 43°24' E 004°55'0 0.0
2016-Aug-21 03:31N 43°24' E 004°55'0 0.0
2016-Aug-21 02:31N 43°24' E 004°55'0 0.0
2016-Aug-21 01:30N 43°24' E 004°55'0 0.0
2016-Aug-21 00:33N 43°24' E 004°55'0 0.0
2016-Aug-20 23:31N 43°24' E 004°55'0 0.0
2016-Aug-20 22:31N 43°24' E 004°55'0 0.0
2016-Aug-20 21:32N 43°24' E 004°55'0 0.0
2016-Aug-20 20:32N 43°24' E 004°55'0 0.0
2016-Aug-20 19:29N 43°24' E 004°55'0 0.0
2016-Aug-20 18:27N 43°24' E 004°55'0 0.0
2016-Aug-20 17:27N 43°24' E 004°55'0 0.0
2016-Aug-20 16:30N 43°24' E 004°55'0 0.0
2016-Aug-20 15:33N 43°24' E 004°55'0 0.1
2016-Aug-20 14:31N 43°24' E 004°55'0 0.0
2016-Aug-20 13:30N 43°24' E 004°55'0 0.0
2016-Aug-20 12:28N 43°24' E 004°55'0 0.0
2016-Aug-20 11:33N 43°24' E 004°55'0 0.0
2016-Aug-20 10:31N 43°24' E 004°55'0 0.0
2016-Aug-20 09:32N 43°24' E 004°55'0 0.0
2016-Aug-20 08:31N 43°24' E 004°55'0 0.0
2016-Aug-20 07:33N 43°24' E 004°55'0 0.0
2016-Aug-20 06:32N 43°24' E 004°55'0 0.0
2016-Aug-20 05:32N 43°24' E 004°55'0 0.0
2016-Aug-20 04:33N 43°24' E 004°55'0 0.0
2016-Aug-20 03:33N 43°24' E 004°55'0 0.0
2016-Aug-20 02:33N 43°24' E 004°55'0 0.0
2016-Aug-20 01:33N 43°24' E 004°55'0 0.0
2016-Aug-20 00:29N 43°24' E 004°55'0 0.0
2016-Aug-19 23:32N 43°24' E 004°55'0 0.0
2016-Aug-19 22:32N 43°24' E 004°55'0 0.0
2016-Aug-19 21:30N 43°24' E 004°55'0 0.1
2016-Aug-19 20:32N 43°24' E 004°55'0 0.0
2016-Aug-19 19:30N 43°24' E 004°55'0 0.0
2016-Aug-19 18:33N 43°24' E 004°55'0 0.0
2016-Aug-19 17:31N 43°24' E 004°55'0 0.0
2016-Aug-19 16:31N 43°24' E 004°55'0 0.0
2016-Aug-19 15:32N 43°24' E 004°55'0 0.0
2016-Aug-19 14:28N 43°24' E 004°55'0 0.0
2016-Aug-19 13:28N 43°24' E 004°55'0 0.0
2016-Aug-19 12:33N 43°24' E 004°55'0 0.0
2016-Aug-19 11:31N 43°24' E 004°55'0 0.0
2016-Aug-19 10:32N 43°24' E 004°55'0 0.0
2016-Aug-19 09:18N 43°24' E 004°55'0 0.1
2016-Aug-19 08:31N 43°24' E 004°55'0 0.0
2016-Aug-19 07:32N 43°24' E 004°55'0 0.0
2016-Aug-19 06:30N 43°24' E 004°55'0 0.0
2016-Aug-19 05:33N 43°24' E 004°55'0 0.0
2016-Aug-19 04:32N 43°24' E 004°55'0 0.0
2016-Aug-19 03:31N 43°24' E 004°55'0 0.0
2016-Aug-19 02:33N 43°24' E 004°55'0 0.0
2016-Aug-19 01:31N 43°24' E 004°55'0 0.0
2016-Aug-19 00:32N 43°24' E 004°55'0 0.0
2016-Aug-18 23:32N 43°24' E 004°55'0 0.0
2016-Aug-18 22:23N 43°24' E 004°55'0 0.0
2016-Aug-18 21:32N 43°24' E 004°55'0 0.0
2016-Aug-18 20:29N 43°24' E 004°55'0 0.0
2016-Aug-18 19:29N 43°24' E 004°55'0 0.0
2016-Aug-18 18:33N 43°24' E 004°55'0 0.0
2016-Aug-18 17:24N 43°24' E 004°55'0 0.0
2016-Aug-18 16:32N 43°24' E 004°55'0 0.0
2016-Aug-18 15:32N 43°24' E 004°55'0 0.0
2016-Aug-18 14:28N 43°24' E 004°55'0 0.0
2016-Aug-18 13:26N 43°24' E 004°55'0 0.0
2016-Aug-18 12:30N 43°24' E 004°55'0 0.0
2016-Aug-18 11:33N 43°24' E 004°55'0 0.0
2016-Aug-18 10:33N 43°24' E 004°55'0 0.0
2016-Aug-18 09:32N 43°24' E 004°55'0 0.0
2016-Aug-18 08:29N 43°24' E 004°55'0 0.0
2016-Aug-18 07:31N 43°24' E 004°55'4 4.2
2016-Aug-18 06:33N 43°21' E 004°58'10 9.5
2016-Aug-18 05:33N 43°12' E 005°03'387 7.9
2016-Aug-16 04:21N 36°55' E 006°56'0 0.0
2016-Aug-16 01:27N 36°55' E 006°56'5 5.6
2016-Aug-16 00:33N 36°59' E 006°60'  

Dump ship's entire track history